createdAt,value
2023-02-28T00:00:33.732Z,6.54
2023-02-28T00:03:01.047Z,6.55
2023-02-28T00:05:29.332Z,6.55
2023-02-28T00:07:56.486Z,6.63
2023-02-28T00:10:27.611Z,6.62
2023-02-28T00:12:57.946Z,6.61
2023-02-28T00:15:25.231Z,6.63
2023-02-28T00:17:52.583Z,6.61
2023-02-28T00:20:20.189Z,6.64
2023-02-28T00:22:50.067Z,6.68
2023-02-28T00:25:20.686Z,6.59
2023-02-28T00:27:47.812Z,6.47
2023-02-28T00:30:17.879Z,6.47
2023-02-28T00:32:44.790Z,6.64
2023-02-28T00:35:12.537Z,6.64
2023-02-28T00:37:41.850Z,6.51
2023-02-28T00:40:10.225Z,6.46
2023-02-28T00:42:37.379Z,6.47
2023-02-28T00:45:09.635Z,6.46
2023-02-28T00:47:38.696Z,6.47
2023-02-28T00:50:06.610Z,6.35
2023-02-28T00:52:33.687Z,6.31
2023-02-28T00:55:00.642Z,6.29
2023-02-28T00:57:27.793Z,6.37
2023-02-28T00:59:55.488Z,6.34
2023-02-28T01:02:23.634Z,6.30
2023-02-28T01:04:53.242Z,6.32
2023-02-28T01:07:20.301Z,6.33
2023-02-28T01:09:47.190Z,6.42
2023-02-28T01:12:14.080Z,6.34
2023-02-28T01:14:40.966Z,6.36
2023-02-28T01:17:07.931Z,6.07
2023-02-28T01:19:35.603Z,6.23
2023-02-28T01:22:07.227Z,6.36
2023-02-28T01:24:35.349Z,6.40
2023-02-28T01:27:02.247Z,6.37
2023-02-28T01:29:29.047Z,6.39
2023-02-28T01:31:56.017Z,6.52
2023-02-28T01:34:23.006Z,6.43
2023-02-28T01:36:51.719Z,6.31
2023-02-28T01:39:19.461Z,6.31
2023-02-28T01:41:46.662Z,6.19
2023-02-28T01:44:51.075Z,6.15
2023-02-28T01:47:18.178Z,6.18
2023-02-28T01:49:45.760Z,6.22
2023-02-28T01:52:19.230Z,6.30
2023-02-28T01:54:52.062Z,6.18
2023-02-28T01:57:23.306Z,6.11
2023-02-28T01:59:59.615Z,5.98
2023-02-28T02:02:28.047Z,6.11
2023-02-28T02:04:59.758Z,6.04
2023-02-28T02:07:27.706Z,6.21
2023-02-28T02:10:17.208Z,6.13
2023-02-28T02:13:04.006Z,6.02
2023-02-28T02:15:37.765Z,6.04
2023-02-28T02:18:18.063Z,6.00
2023-02-28T02:21:14.611Z,6.08
2023-02-28T02:24:15.627Z,6.24
2023-02-28T02:26:51.349Z,5.99
2023-02-28T02:29:33.072Z,6.11
2023-02-28T02:32:05.967Z,6.18
2023-02-28T02:34:42.476Z,6.13
2023-02-28T02:37:15.327Z,6.08
2023-02-28T02:39:51.235Z,5.99
2023-02-28T02:42:26.479Z,6.02
2023-02-28T02:45:05.885Z,5.89
2023-02-28T02:47:34.282Z,5.92
2023-02-28T02:50:08.744Z,5.79
2023-02-28T02:52:44.815Z,5.79
2023-02-28T02:55:13.283Z,5.92
2023-02-28T02:57:49.323Z,6.05
2023-02-28T03:00:21.108Z,6.06
2023-02-28T03:02:50.354Z,6.19
2023-02-28T03:05:43.543Z,6.03
2023-02-28T03:08:10.378Z,5.92
2023-02-28T03:10:43.197Z,5.91
2023-02-28T03:13:19.109Z,5.95
2023-02-28T03:27:59.578Z,5.08
2023-02-28T03:30:54.817Z,5.05
2023-02-28T03:33:31.658Z,5.15
2023-02-28T03:36:03.969Z,5.23
2023-02-28T03:38:45.284Z,5.35
2023-02-28T03:41:20.766Z,5.35
2023-02-28T03:44:03.346Z,5.43
2023-02-28T03:46:36.300Z,5.49
2023-02-28T03:49:12.622Z,5.43
2023-02-28T03:51:42.728Z,5.48
2023-02-28T03:54:16.999Z,5.39
2023-02-28T03:56:56.617Z,5.43
2023-02-28T03:59:27.823Z,5.39
2023-02-28T04:01:56.251Z,5.34
2023-02-28T04:04:23.844Z,5.19
2023-02-28T04:06:52.782Z,5.30
2023-02-28T04:09:19.953Z,5.13
2023-02-28T04:11:52.915Z,5.30
2023-02-28T04:14:20.190Z,5.39
2023-02-28T04:16:47.188Z,5.44
2023-02-28T04:19:14.786Z,5.45
2023-02-28T04:21:44.280Z,5.55
2023-02-28T04:24:17.226Z,5.69
2023-02-28T04:26:50.582Z,5.74
2023-02-28T04:29:24.111Z,5.68
2023-02-28T04:31:51.545Z,5.55
2023-02-28T04:34:20.064Z,5.53
2023-02-28T04:37:11.490Z,5.34
2023-02-28T04:39:39.176Z,5.36
2023-02-28T04:42:06.044Z,5.48
2023-02-28T04:44:33.097Z,5.53
2023-02-28T04:47:00.019Z,5.55
2023-02-28T04:49:27.148Z,5.51
2023-02-28T04:51:54.184Z,5.39
2023-02-28T04:54:21.304Z,5.30
2023-02-28T04:56:50.887Z,5.19
2023-02-28T04:59:18.389Z,5.22
2023-02-28T05:01:50.196Z,5.34
2023-02-28T05:04:17.276Z,5.38
2023-02-28T05:06:44.188Z,5.46
2023-02-28T05:09:14.206Z,5.38
2023-02-28T05:11:41.737Z,5.48
2023-02-28T05:14:13.421Z,5.53
2023-02-28T05:16:40.466Z,5.51
2023-02-28T05:19:07.404Z,5.44
2023-02-28T05:21:52.352Z,5.36
2023-02-28T05:24:23.869Z,5.47
2023-02-28T05:26:53.897Z,5.68
2023-02-28T05:29:21.317Z,5.75
2023-02-28T05:31:48.641Z,5.82
2023-02-28T05:34:16.691Z,5.54
2023-02-28T05:36:43.668Z,5.81
2023-02-28T05:39:14.220Z,5.72
2023-02-28T05:41:43.235Z,5.80
2023-02-28T05:44:11.040Z,5.84
2023-02-28T05:46:37.964Z,5.71
2023-02-28T05:49:05.021Z,5.55
2023-02-28T05:51:32.338Z,5.41
2023-02-28T05:54:03.059Z,5.49
2023-02-28T05:56:30.166Z,5.63
2023-02-28T05:58:57.248Z,5.54
2023-02-28T06:01:49.341Z,5.29
2023-02-28T06:04:31.155Z,5.07
2023-02-28T06:06:59.301Z,4.95
2023-02-28T06:09:26.287Z,4.96
2023-02-28T06:11:53.258Z,4.89
2023-02-28T06:14:21.873Z,4.76
2023-02-28T06:16:48.794Z,4.92
2023-02-28T06:19:16.408Z,4.95
2023-02-28T06:21:43.718Z,4.90
2023-02-28T06:24:11.749Z,5.16
2023-02-28T06:26:39.058Z,5.00
2023-02-28T06:29:05.954Z,4.92
2023-02-28T06:31:33.478Z,4.96
2023-02-28T06:34:00.523Z,4.82
2023-02-28T06:36:27.367Z,4.93
2023-02-28T06:38:56.606Z,5.15
2023-02-28T06:41:25.508Z,5.05
2023-02-28T06:43:53.560Z,5.15
2023-02-28T06:46:21.279Z,5.19
2023-02-28T06:48:48.283Z,5.06
2023-02-28T06:51:21.500Z,5.08
2023-02-28T06:53:48.724Z,4.79
2023-02-28T06:56:17.098Z,4.92
2023-02-28T06:58:51.668Z,5.06
2023-02-28T07:01:18.911Z,5.19
2023-02-28T07:03:46.255Z,5.23
2023-02-28T07:06:13.560Z,5.37
2023-02-28T07:08:42.172Z,5.30
2023-02-28T07:11:09.321Z,5.29
2023-02-28T07:13:36.723Z,5.22
2023-02-28T07:16:06.485Z,5.23
2023-02-28T07:18:33.616Z,5.33
2023-02-28T07:21:03.150Z,5.30
2023-02-28T07:23:30.011Z,5.46
2023-02-28T07:25:56.918Z,5.34
2023-02-28T07:28:23.863Z,5.43
2023-02-28T07:30:50.888Z,5.31
2023-02-28T07:33:18.120Z,5.43
2023-02-28T07:35:45.172Z,5.56
2023-02-28T07:38:13.621Z,5.72
2023-02-28T07:40:41.004Z,5.71
2023-02-28T07:43:07.940Z,5.63
2023-02-28T07:45:37.598Z,5.32
2023-02-28T07:48:04.712Z,5.41
2023-02-28T07:50:32.269Z,5.33
2023-02-28T07:53:00.318Z,5.48
2023-02-28T07:55:27.630Z,5.71
2023-02-28T07:57:54.936Z,5.62
2023-02-28T08:00:22.779Z,5.74
2023-02-28T08:02:49.682Z,5.90
2023-02-28T08:05:16.966Z,6.03
2023-02-28T08:07:43.897Z,6.08
2023-02-28T08:10:11.371Z,5.73
2023-02-28T08:12:38.258Z,5.91
2023-02-28T08:15:05.526Z,5.84
2023-02-28T08:17:35.024Z,5.68
2023-02-28T08:20:02.301Z,6.01
2023-02-28T08:22:29.141Z,6.14
2023-02-28T08:24:56.211Z,6.06
2023-02-28T08:27:23.092Z,5.95
2023-02-28T08:29:49.899Z,5.90
2023-02-28T08:32:28.981Z,5.66
2023-02-28T08:34:56.884Z,5.28
2023-02-28T08:37:23.800Z,5.26
2023-02-28T08:39:50.636Z,5.41
2023-02-28T08:42:17.727Z,5.29
2023-02-28T08:44:44.585Z,5.37
2023-02-28T08:47:11.785Z,5.35
2023-02-28T08:49:38.976Z,5.40
2023-02-28T08:52:05.855Z,5.36
2023-02-28T08:54:34.350Z,5.48
2023-02-28T08:57:01.759Z,5.59
2023-02-28T08:59:28.704Z,5.85
2023-02-28T09:01:55.508Z,5.86
2023-02-28T09:04:25.183Z,6.05
2023-02-28T09:06:52.420Z,6.05
2023-02-28T09:09:19.376Z,6.24
2023-02-28T09:11:46.234Z,6.48
2023-02-28T09:14:13.092Z,6.24
2023-02-28T09:16:40.043Z,6.28
2023-02-28T09:19:06.941Z,6.18
2023-02-28T09:21:33.736Z,6.51
2023-02-28T09:24:00.609Z,6.54
2023-02-28T09:26:34.931Z,6.62
2023-02-28T09:29:10.099Z,6.72
2023-02-28T09:31:37.008Z,6.96
2023-02-28T09:34:05.529Z,6.68
2023-02-28T09:36:43.659Z,6.80
2023-02-28T09:39:11.779Z,6.63
2023-02-28T09:41:51.785Z,6.50
2023-02-28T09:44:31.524Z,6.53
2023-02-28T09:47:30.859Z,6.44
2023-02-28T09:50:04.417Z,6.23
2023-02-28T09:52:33.675Z,6.39
2023-02-28T09:55:20.779Z,6.54
2023-02-28T09:57:48.214Z,6.39
2023-02-28T10:00:28.778Z,6.37
2023-02-28T10:03:07.629Z,6.48
2023-02-28T10:05:43.500Z,6.43
2023-02-28T10:08:17.910Z,6.40
2023-02-28T10:10:48.250Z,6.40
2023-02-28T10:13:44.342Z,6.31
2023-02-28T10:16:25.834Z,6.45
2023-02-28T10:19:28.787Z,6.63
2023-02-28T10:22:02.844Z,6.21
2023-02-28T10:24:34.839Z,6.31
2023-02-28T10:27:15.944Z,6.38
2023-02-28T10:29:58.018Z,6.17
2023-02-28T10:32:29.951Z,6.12
2023-02-28T10:34:58.809Z,6.06
2023-02-28T10:37:25.842Z,5.90
2023-02-28T10:39:52.743Z,6.03
2023-02-28T10:42:34.241Z,6.02
2023-02-28T10:45:14.736Z,6.14
2023-02-28T10:47:56.572Z,6.03
2023-02-28T10:50:39.075Z,6.16
2023-02-28T10:53:59.591Z,6.30
2023-02-28T10:56:28.248Z,6.17
2023-02-28T10:58:59.446Z,6.34
2023-02-28T11:01:37.416Z,6.45
2023-02-28T11:04:04.898Z,6.47
2023-02-28T11:06:35.385Z,6.39
2023-02-28T11:09:08.066Z,6.44
2023-02-28T11:11:44.812Z,6.39
2023-02-28T11:14:25.727Z,6.68
2023-02-28T11:16:54.203Z,7.05
2023-02-28T11:19:28.254Z,7.19
2023-02-28T11:22:04.522Z,7.27
2023-02-28T11:24:31.386Z,7.16
2023-02-28T11:26:58.640Z,6.93
2023-02-28T11:29:31.672Z,6.69
2023-02-28T11:32:10.791Z,6.47
2023-02-28T11:34:39.165Z,6.45
2023-02-28T11:37:12.683Z,6.28
2023-02-28T11:39:41.341Z,6.04
2023-02-28T11:42:11.638Z,6.10
2023-02-28T11:45:00.099Z,5.90
2023-02-28T11:48:01.887Z,5.86
2023-02-28T11:50:51.924Z,5.94
2023-02-28T11:53:21.426Z,6.18
2023-02-28T11:56:20.760Z,6.54
2023-02-28T11:58:48.473Z,6.47
2023-02-28T12:01:50.498Z,5.96
2023-02-28T12:04:56.986Z,5.98
2023-02-28T12:07:27.472Z,6.15
2023-02-28T12:10:09.598Z,6.26
2023-02-28T12:13:05.104Z,6.42
2023-02-28T12:16:03.025Z,6.24
2023-02-28T12:18:39.777Z,6.20
2023-02-28T12:21:25.871Z,6.21
2023-02-28T12:24:06.930Z,6.13
2023-02-28T12:26:39.836Z,6.03
2023-02-28T12:29:29.855Z,6.19
2023-02-28T12:32:14.168Z,6.01
2023-02-28T12:35:07.316Z,6.27
2023-02-28T12:37:44.141Z,6.06
2023-02-28T12:40:23.185Z,6.12
2023-02-28T12:42:52.392Z,5.95
2023-02-28T12:45:22.441Z,5.94
2023-02-28T12:47:53.726Z,6.02
2023-02-28T12:50:21.184Z,6.27
2023-02-28T12:53:03.489Z,6.26
2023-02-28T12:55:58.114Z,6.15
2023-02-28T12:58:39.242Z,5.97
2023-02-28T13:01:12.193Z,5.92
2023-02-28T13:04:07.803Z,5.87
2023-02-28T13:06:34.614Z,5.89
2023-02-28T13:09:12.059Z,5.91
2023-02-28T13:11:46.442Z,5.93
2023-02-28T13:14:25.790Z,5.92
2023-02-28T13:17:02.433Z,5.93
2023-02-28T13:19:35.851Z,5.90
2023-02-28T13:22:03.659Z,5.65
2023-02-28T13:24:45.692Z,5.62
2023-02-28T13:27:25.820Z,5.57
2023-02-28T13:29:54.003Z,5.50
2023-02-28T13:32:31.367Z,5.41
2023-02-28T13:34:58.208Z,5.50
2023-02-28T13:37:33.793Z,5.35
2023-02-28T13:40:32.148Z,5.45
2023-02-28T13:42:59.048Z,5.49
2023-02-28T13:45:28.731Z,5.65
2023-02-28T13:48:06.956Z,5.33
2023-02-28T13:50:38.811Z,5.38
2023-02-28T13:53:15.005Z,5.38
2023-02-28T13:55:48.224Z,5.36
2023-02-28T13:58:37.134Z,5.30
2023-02-28T14:01:22.378Z,5.43
2023-02-28T14:04:07.696Z,5.32
2023-02-28T14:06:38.108Z,5.38
2023-02-28T14:09:24.629Z,5.47
2023-02-28T14:11:52.441Z,5.39
2023-02-28T14:14:37.613Z,5.38
2023-02-28T14:17:07.072Z,5.22
2023-02-28T14:19:37.577Z,5.29
2023-02-28T14:22:13.617Z,5.28
2023-02-28T14:25:09.343Z,5.33
2023-02-28T14:27:47.344Z,5.34
2023-02-28T14:30:38.185Z,5.38
2023-02-28T14:33:43.866Z,5.41
2023-02-28T14:36:17.136Z,5.32
2023-02-28T14:38:46.449Z,5.53
2023-02-28T14:41:38.426Z,5.33
2023-02-28T14:44:19.143Z,5.32
2023-02-28T14:46:49.414Z,5.33
2023-02-28T14:49:31.338Z,5.41
2023-02-28T14:52:10.940Z,5.31
2023-02-28T14:54:38.997Z,5.24
2023-02-28T14:57:06.566Z,5.13
2023-02-28T14:59:36.102Z,5.21
2023-02-28T15:02:21.405Z,5.29
2023-02-28T15:05:03.336Z,5.39
2023-02-28T15:07:30.590Z,5.40
2023-02-28T15:10:16.041Z,5.37
2023-02-28T15:12:50.613Z,5.17
2023-02-28T15:29:51.942Z,4.55
2023-02-28T15:32:37.107Z,4.68
2023-02-28T15:35:31.004Z,4.74
2023-02-28T15:38:03.451Z,4.69
2023-02-28T15:40:39.862Z,4.73
2023-02-28T15:43:24.455Z,4.71
2023-02-28T15:46:05.631Z,4.74
2023-02-28T15:48:40.624Z,4.66
2023-02-28T15:51:17.794Z,4.79
2023-02-28T15:54:08.728Z,4.81
2023-02-28T15:56:44.314Z,4.88
2023-02-28T15:59:22.109Z,4.74
2023-02-28T16:02:23.552Z,4.70
2023-02-28T16:05:18.885Z,4.76
2023-02-28T16:07:46.129Z,4.70
2023-02-28T16:10:15.243Z,4.64
2023-02-28T16:12:43.026Z,4.73
2023-02-28T16:15:20.314Z,4.69
2023-02-28T16:17:47.779Z,4.76
2023-02-28T16:20:16.218Z,4.77
2023-02-28T16:22:44.138Z,4.82
2023-02-28T16:25:16.558Z,4.75
2023-02-28T16:27:46.215Z,4.70
2023-02-28T16:30:25.499Z,4.79
2023-02-28T16:32:53.771Z,4.75
2023-02-28T16:35:21.872Z,4.78
2023-02-28T16:37:48.876Z,4.72
2023-02-28T16:40:18.218Z,4.69
2023-02-28T16:42:47.096Z,4.68
2023-02-28T16:45:28.436Z,4.77
2023-02-28T16:47:56.530Z,4.74
2023-02-28T16:50:31.539Z,4.75
2023-02-28T16:52:58.410Z,4.79
2023-02-28T16:55:27.176Z,4.74
2023-02-28T16:57:59.917Z,4.82
2023-02-28T17:00:28.952Z,4.79
2023-02-28T17:02:57.119Z,4.78
2023-02-28T17:05:25.004Z,4.64
2023-02-28T17:07:51.877Z,4.77
2023-02-28T17:10:21.671Z,4.71
2023-02-28T17:12:49.425Z,4.68
2023-02-28T17:15:18.973Z,4.73
2023-02-28T17:17:47.689Z,4.92
2023-02-28T17:20:16.315Z,4.89
2023-02-28T17:22:43.294Z,4.78
2023-02-28T17:25:11.531Z,4.73
2023-02-28T17:27:39.019Z,4.62
2023-02-28T17:30:16.521Z,4.58
2023-02-28T17:32:43.590Z,4.57
2023-02-28T17:35:10.647Z,4.59
2023-02-28T17:37:37.593Z,4.62
2023-02-28T17:40:05.436Z,4.58
2023-02-28T17:42:32.518Z,4.62
2023-02-28T17:44:59.341Z,4.64
2023-02-28T17:47:26.215Z,4.56
2023-02-28T17:49:53.017Z,4.52
2023-02-28T17:52:19.874Z,4.52
2023-02-28T17:54:46.712Z,4.42
2023-02-28T17:57:16.428Z,4.50
2023-02-28T17:59:43.960Z,4.49
2023-02-28T18:02:14.209Z,4.50
2023-02-28T18:04:41.069Z,4.56
2023-02-28T18:07:12.335Z,4.57
2023-02-28T18:09:39.490Z,4.56
2023-02-28T18:12:06.526Z,4.51
2023-02-28T18:14:33.435Z,4.48
2023-02-28T18:17:00.589Z,4.45
2023-02-28T18:19:27.568Z,4.37
2023-02-28T18:21:55.057Z,4.45
2023-02-28T18:24:24.678Z,4.48
2023-02-28T18:26:52.620Z,4.46
2023-02-28T18:29:25.514Z,4.47
2023-02-28T18:31:53.951Z,4.44
2023-02-28T18:34:21.416Z,4.49
2023-02-28T18:36:50.735Z,4.54
2023-02-28T18:39:18.775Z,4.41
2023-02-28T18:41:45.821Z,4.29
2023-02-28T18:44:19.978Z,4.27
2023-02-28T18:46:49.339Z,4.40
2023-02-28T18:49:16.712Z,4.24
2023-02-28T18:51:46.848Z,4.32
2023-02-28T18:54:15.049Z,4.40
2023-02-28T18:56:42.611Z,4.41
2023-02-28T18:59:11.122Z,4.46
2023-02-28T19:01:38.638Z,4.49
2023-02-28T19:04:06.569Z,4.45
2023-02-28T19:06:36.774Z,4.43
2023-02-28T19:09:04.235Z,4.54
2023-02-28T19:11:31.599Z,4.43
2023-02-28T19:13:58.602Z,4.49
2023-02-28T19:16:25.985Z,4.43
2023-02-28T19:18:53.020Z,4.45
2023-02-28T19:21:22.444Z,4.41
2023-02-28T19:23:49.401Z,4.31
2023-02-28T19:26:24.928Z,4.43
2023-02-28T19:28:51.884Z,4.36
2023-02-28T19:31:24.150Z,4.33
2023-02-28T19:33:53.099Z,4.24
2023-02-28T19:36:21.115Z,4.18
2023-02-28T19:38:48.687Z,4.23
2023-02-28T19:41:17.129Z,4.25
2023-02-28T19:43:44.138Z,4.17
2023-02-28T19:46:12.586Z,4.14
2023-02-28T19:48:40.313Z,4.23
2023-02-28T19:51:10.007Z,4.31
2023-02-28T19:53:38.872Z,4.32
2023-02-28T19:56:08.489Z,4.33
2023-02-28T19:58:36.232Z,4.26
2023-02-28T20:01:15.647Z,4.28
2023-02-28T20:03:43.070Z,4.36
2023-02-28T20:06:15.622Z,4.27
2023-02-28T20:08:43.404Z,4.27
2023-02-28T20:11:15.182Z,4.23
2023-02-28T20:13:42.845Z,4.17
2023-02-28T20:16:11.815Z,4.18
2023-02-28T20:18:39.787Z,4.09
2023-02-28T20:21:11.266Z,4.11
2023-02-28T20:23:39.336Z,4.07
2023-02-28T20:26:06.520Z,4.09
2023-02-28T20:28:33.482Z,4.22
2023-02-28T20:31:01.036Z,4.15
2023-02-28T20:33:28.100Z,4.17
2023-02-28T20:36:05.686Z,4.22
2023-02-28T20:38:32.731Z,4.22
2023-02-28T20:41:00.539Z,4.21
2023-02-28T20:43:28.110Z,4.17
2023-02-28T20:46:01.756Z,4.20
2023-02-28T20:48:33.376Z,4.15
2023-02-28T20:51:00.492Z,4.18
2023-02-28T20:53:28.133Z,4.31
2023-02-28T20:55:59.030Z,4.23
2023-02-28T20:58:28.380Z,4.23
2023-02-28T21:01:15.967Z,4.26
2023-02-28T21:03:48.149Z,4.38
2023-02-28T21:06:16.251Z,4.39
2023-02-28T21:08:43.661Z,4.37
2023-02-28T21:11:14.135Z,4.46
2023-02-28T21:13:43.582Z,4.42
2023-02-28T21:16:12.919Z,4.33
2023-02-28T21:18:40.458Z,4.40
2023-02-28T21:21:10.849Z,4.46
2023-02-28T21:23:37.821Z,4.51
2023-02-28T21:26:11.720Z,4.39
2023-02-28T21:28:44.072Z,4.44
2023-02-28T21:31:16.696Z,4.40
2023-02-28T21:33:44.512Z,4.45
2023-02-28T21:36:18.734Z,4.48
2023-02-28T21:38:47.196Z,4.51
2023-02-28T21:41:20.313Z,4.59
2023-02-28T21:43:48.425Z,4.60
2023-02-28T21:46:17.756Z,4.43
2023-02-28T21:48:44.888Z,4.52
2023-02-28T21:51:14.820Z,4.60
2023-02-28T21:53:42.150Z,4.63
2023-02-28T21:56:13.807Z,4.67
2023-02-28T21:58:41.644Z,4.56
2023-02-28T22:01:18.254Z,4.53
2023-02-28T22:03:46.049Z,4.49
2023-02-28T22:06:21.418Z,4.49
2023-02-28T22:08:52.204Z,4.45
2023-02-28T22:11:19.414Z,4.43
2023-02-28T22:13:48.752Z,4.43
2023-02-28T22:16:18.600Z,4.46
2023-02-28T22:18:45.817Z,4.45
2023-02-28T22:21:14.030Z,4.52
2023-02-28T22:23:42.193Z,4.45
2023-02-28T22:26:11.730Z,4.46
2023-02-28T22:28:38.981Z,4.47
2023-02-28T22:31:14.947Z,4.51
2023-02-28T22:33:42.216Z,4.48
2023-02-28T22:36:10.048Z,4.46
2023-02-28T22:38:37.011Z,4.44
2023-02-28T22:41:05.725Z,4.37
2023-02-28T22:43:33.053Z,4.39
2023-02-28T22:46:04.490Z,4.40
2023-02-28T22:48:31.466Z,4.40
2023-02-28T22:51:15.192Z,4.36
2023-02-28T22:53:44.372Z,4.41
2023-02-28T22:56:13.536Z,4.43
2023-02-28T22:58:40.415Z,4.46
2023-02-28T23:01:12.091Z,4.48
2023-02-28T23:03:40.141Z,4.57
2023-02-28T23:06:16.212Z,4.50
2023-02-28T23:08:43.855Z,4.60
2023-02-28T23:11:11.550Z,4.58
2023-02-28T23:13:38.413Z,4.58
2023-02-28T23:16:07.042Z,4.50
2023-02-28T23:18:34.225Z,4.53
2023-02-28T23:21:01.278Z,4.55
2023-02-28T23:23:28.119Z,4.50
2023-02-28T23:25:54.964Z,4.45
2023-02-28T23:28:23.139Z,4.46
2023-02-28T23:30:50.048Z,4.50
2023-02-28T23:33:17.115Z,4.47
2023-02-28T23:35:43.943Z,4.50
2023-02-28T23:38:10.917Z,4.55
2023-02-28T23:40:40.737Z,4.47
2023-02-28T23:43:07.524Z,4.47
2023-02-28T23:45:34.399Z,4.41
2023-02-28T23:48:01.303Z,4.37
2023-02-28T23:50:28.493Z,4.44
2023-02-28T23:52:55.514Z,4.39
2023-02-28T23:55:22.341Z,4.39
2023-02-28T23:57:49.183Z,4.33
